Tucson, AZ (85711)

7:20 PM MST on September 04, 2015 (GMT -0700)
Presidio at Williams Center | | Change Station
CLOSE
Current Station
Personal Weather Station
Location: Tucson, AZ
Elevation: 2572 ft
Nearby Weather Stations

Elev 2572 ft 32.22 °N, 110.88 °W | Updated 10 seconds ago

Overcast
Overcast
77.2 °F
Feels Like 79 °F
N
0.2
Wind Variable Wind from SE
Gusts 2.5 mph

Today
High -- | Low -- °F
--% Chance of Precip.
Yesterday
High -- | Low -- °F
Precip. -- in
6:00 AM 6:44 PM
Waning Gibbous, 53% visible
Pressure 29.85 in
Visibility 10.0 miles
Clouds Scattered Clouds 10000 ft
Heat Index 79 °F
Dew Point 64 °F
Humidity 63%
Rainfall 0.00 in
Snow Depth Not available.
UV 0.0 out of 12
Pollen .70 out of 12
Air Quality Not available.
Flu Activity Not available.
METAR KDMA 050158Z AUTO 15005KT 10SM SCT100 24/19 A2995 RMK AO2 SLP107 T02440185 $
Pressure 29.85 in
Visibility 10.0 miles
Clouds Scattered Clouds 10000 ft
Heat Index 79 °F
Dew Point 64 °F
Humidity 63%
Rainfall 0.00 in
Snow Depth Not available.
UV 0.0 out of 12
Pollen .70 out of 12
Air Quality Not available.
Flu Activity Not available.
METAR KDMA 050158Z AUTO 15005KT 10SM SCT100 24/19 A2995 RMK AO2 SLP107 T02440185 $

10-Day Weather Forecast

×

Almanac

Astronomy

Sep. 04, 2015 Rise Set
Actual Time
Civil Twilight
Nautical Twilight
Astronomical Twilight
Moon
Length of Visible Light
Length of Day
Tomorrow will be .
, % of the Moon is Illuminated

Today's Extremes

State Highs State Lows

Community

WunderPhotos

Upload Photos

1,852,391 photos uploaded!

WunderBlogs® & News

Nearby

Air Quality

  Air Quality AQ Index Pollutant
Not available.

Snow Depth

Station Depth Elevation

Earthquake Activity

City Distance Mag. Time & Date
Minimum magnitude displayed is 2.5.

Coastal Water Temperatures

Place Temperature

Stations

Nearby Weather Stations

Station Location Temp. Windchill Dew Point Humidity Wind Precip. Elev Updated Type